createdAt,value
2018-01-30T00:01:49.556Z,2.67
2018-01-30T00:04:17.776Z,1.57
2018-01-30T00:06:45.218Z,2.90
2018-01-30T00:09:12.688Z,1.20
2018-01-30T00:11:40.131Z,1.13
2018-01-30T00:14:08.364Z,1.90
2018-01-30T00:16:35.811Z,1.20
2018-01-30T00:19:03.271Z,3.30
2018-01-30T00:21:30.718Z,1.53
2018-01-30T00:23:58.177Z,1.10
2018-01-30T00:26:25.641Z,2.00
2018-01-30T00:28:53.094Z,2.17
2018-01-30T00:31:20.547Z,2.83
2018-01-30T00:33:48.002Z,1.53
2018-01-30T00:36:15.450Z,0.80
2018-01-30T00:38:42.918Z,3.37
2018-01-30T00:41:10.362Z,1.10
2018-01-30T00:43:37.826Z,1.10
2018-01-30T00:46:05.274Z,1.00
2018-01-30T00:48:32.744Z,1.73
2018-01-30T00:51:00.204Z,1.10
2018-01-30T00:53:27.668Z,0.87
2018-01-30T00:55:55.114Z,1.10
2018-01-30T00:58:22.570Z,1.40
2018-01-30T01:00:50.018Z,1.13
2018-01-30T01:03:17.486Z,2.83
2018-01-30T01:05:44.947Z,2.00
2018-01-30T01:08:12.518Z,1.30
2018-01-30T01:10:39.980Z,1.33
2018-01-30T01:13:07.440Z,2.63
2018-01-30T01:15:34.899Z,2.37
2018-01-30T01:18:02.353Z,2.10
2018-01-30T01:20:29.847Z,2.67
2018-01-30T01:22:57.517Z,4.53
2018-01-30T01:25:24.962Z,3.00
2018-01-30T01:27:52.432Z,3.27
2018-01-30T01:30:19.899Z,1.63
2018-01-30T01:32:47.365Z,2.43
2018-01-30T01:35:14.926Z,1.40
2018-01-30T01:37:42.370Z,2.43
2018-01-30T01:40:09.832Z,2.03
2018-01-30T01:42:37.287Z,3.20
2018-01-30T01:45:04.740Z,1.80
2018-01-30T01:47:32.202Z,2.63
2018-01-30T01:49:59.667Z,2.07
2018-01-30T01:52:27.110Z,1.67
2018-01-30T01:54:54.570Z,2.40
2018-01-30T01:57:22.028Z,3.20
2018-01-30T01:59:49.486Z,2.50
2018-01-30T02:02:16.938Z,2.83
2018-01-30T02:04:44.402Z,2.03
2018-01-30T02:07:11.867Z,2.13
2018-01-30T02:09:39.345Z,2.87
2018-01-30T02:12:06.782Z,1.73
2018-01-30T02:14:34.242Z,2.47
2018-01-30T02:17:01.695Z,1.80
2018-01-30T02:19:29.162Z,2.67
2018-01-30T02:21:56.602Z,2.10
2018-01-30T02:24:24.058Z,2.50
2018-01-30T02:26:51.503Z,2.70
2018-01-30T02:29:18.967Z,2.57
2018-01-30T02:31:46.422Z,2.73
2018-01-30T02:34:13.892Z,2.20
2018-01-30T02:36:41.338Z,2.93
2018-01-30T02:39:08.810Z,3.10
2018-01-30T02:41:36.263Z,3.50
2018-01-30T02:44:03.739Z,2.53
2018-01-30T02:46:31.195Z,3.17
2018-01-30T02:48:58.659Z,2.60
2018-01-30T02:51:26.106Z,2.20
2018-01-30T02:53:53.566Z,2.17
2018-01-30T02:56:21.026Z,2.73
2018-01-30T02:58:48.479Z,2.53
2018-01-30T03:01:15.940Z,3.50
2018-01-30T03:03:43.403Z,2.93
2018-01-30T03:06:10.846Z,3.20
2018-01-30T03:08:38.302Z,2.80
2018-01-30T03:11:05.756Z,4.10
2018-01-30T03:13:33.232Z,2.63
2018-01-30T03:16:00.687Z,2.60
2018-01-30T03:18:28.151Z,3.80
2018-01-30T03:20:55.615Z,2.57
2018-01-30T03:23:23.060Z,3.33
2018-01-30T03:25:50.527Z,2.10
2018-01-30T03:28:17.980Z,3.07
2018-01-30T03:30:45.434Z,6.93
2018-01-30T03:33:12.895Z,1.93
2018-01-30T03:35:40.360Z,2.77
2018-01-30T03:38:07.811Z,2.67
2018-01-30T03:40:35.276Z,3.13
2018-01-30T03:43:03.503Z,2.90
2018-01-30T03:45:30.966Z,3.13
2018-01-30T03:47:59.188Z,2.23
2018-01-30T03:50:27.423Z,3.40
2018-01-30T03:52:54.884Z,3.03
2018-01-30T03:55:22.347Z,7.20
2018-01-30T03:57:49.808Z,3.30
2018-01-30T04:00:17.292Z,2.60
2018-01-30T04:02:44.786Z,2.97
2018-01-30T04:05:12.236Z,2.23
2018-01-30T04:07:39.707Z,3.70
2018-01-30T04:10:07.162Z,3.60
2018-01-30T04:12:34.618Z,3.10
2018-01-30T04:15:02.079Z,3.20
2018-01-30T04:17:29.590Z,2.90
2018-01-30T04:19:56.998Z,3.23
2018-01-30T04:22:24.461Z,5.93
2018-01-30T04:24:51.914Z,4.30
2018-01-30T04:27:19.406Z,2.37
2018-01-30T04:29:46.852Z,3.57
2018-01-30T04:32:14.302Z,5.97
2018-01-30T04:34:41.763Z,3.07
2018-01-30T04:37:09.228Z,3.07
2018-01-30T04:39:36.674Z,3.27
2018-01-30T04:42:04.118Z,5.37
2018-01-30T04:44:31.574Z,4.53
2018-01-30T04:46:59.031Z,3.10
2018-01-30T04:49:26.495Z,3.33
2018-01-30T04:51:53.935Z,5.20
2018-01-30T04:54:21.394Z,4.20
2018-01-30T04:56:48.847Z,4.43
2018-01-30T04:59:16.315Z,3.90
2018-01-30T05:01:43.772Z,8.30
2018-01-30T05:04:11.235Z,6.03
2018-01-30T05:06:38.682Z,3.87
2018-01-30T05:09:06.143Z,4.00
2018-01-30T05:11:33.608Z,4.43
2018-01-30T05:14:01.063Z,5.20
2018-01-30T05:16:28.530Z,5.40
2018-01-30T05:18:55.978Z,16.17
2018-01-30T05:21:23.446Z,8.90
2018-01-30T05:23:50.904Z,8.60
2018-01-30T05:26:18.367Z,5.47
2018-01-30T05:28:45.814Z,5.23
2018-01-30T05:31:13.281Z,4.40
2018-01-30T05:33:40.736Z,6.83
2018-01-30T05:36:08.191Z,4.80
2018-01-30T05:38:35.647Z,7.00
2018-01-30T05:41:03.935Z,7.23
2018-01-30T05:43:31.378Z,4.60
2018-01-30T05:45:59.783Z,15.43
2018-01-30T05:48:27.226Z,12.40
2018-01-30T05:50:54.699Z,19.23
2018-01-30T05:53:22.155Z,20.23
2018-01-30T05:55:49.598Z,14.43
2018-01-30T05:58:17.087Z,14.90
2018-01-30T06:00:44.556Z,14.73
2018-01-30T06:03:12.276Z,14.80
2018-01-30T06:05:39.722Z,11.80
2018-01-30T06:08:07.200Z,11.60
2018-01-30T06:10:34.634Z,7.73
2018-01-30T06:13:02.095Z,7.13
2018-01-30T06:15:29.556Z,8.30
2018-01-30T06:17:57.011Z,6.80
2018-01-30T06:20:24.463Z,7.80
2018-01-30T06:22:51.932Z,6.93
2018-01-30T06:25:19.375Z,7.97
2018-01-30T06:27:46.868Z,13.77
2018-01-30T06:30:14.331Z,9.23
2018-01-30T06:32:41.779Z,10.47
2018-01-30T06:35:09.238Z,16.37
2018-01-30T06:37:36.704Z,14.90
2018-01-30T06:40:04.160Z,9.43
2018-01-30T06:42:31.622Z,10.40
2018-01-30T06:44:59.095Z,6.53
2018-01-30T06:47:26.550Z,8.00
2018-01-30T06:49:54.016Z,6.20
2018-01-30T06:52:21.473Z,8.17
2018-01-30T06:54:48.929Z,6.70
2018-01-30T06:57:16.468Z,6.27
2018-01-30T06:59:44.229Z,7.20
2018-01-30T07:02:11.687Z,12.87
2018-01-30T07:04:39.159Z,14.90
2018-01-30T07:07:06.663Z,17.67
2018-01-30T07:09:34.116Z,9.67
2018-01-30T07:12:01.600Z,13.70
2018-01-30T07:14:29.060Z,10.67
2018-01-30T07:16:56.518Z,10.30
2018-01-30T07:19:23.971Z,11.23
2018-01-30T07:21:51.450Z,13.07
2018-01-30T07:24:19.105Z,19.93
2018-01-30T07:26:46.572Z,22.37
2018-01-30T07:29:14.019Z,17.03
2018-01-30T07:31:41.482Z,15.90
2018-01-30T07:34:08.940Z,13.90
2018-01-30T07:36:36.422Z,17.47
2018-01-30T07:39:03.864Z,21.77
2018-01-30T07:41:31.322Z,16.47
2018-01-30T07:43:58.778Z,15.80
2018-01-30T07:46:26.267Z,18.43
2018-01-30T07:48:53.702Z,13.90
2018-01-30T07:51:21.164Z,16.53
2018-01-30T07:53:48.632Z,8.97
2018-01-30T07:56:16.108Z,8.00
2018-01-30T07:58:43.571Z,7.30
2018-01-30T08:01:11.039Z,7.23
2018-01-30T08:03:38.512Z,8.80
2018-01-30T08:06:05.960Z,8.60
2018-01-30T08:08:33.425Z,9.70
2018-01-30T08:11:01.029Z,8.47
2018-01-30T08:13:28.486Z,8.63
2018-01-30T08:15:55.951Z,14.00
2018-01-30T08:18:23.431Z,17.10
2018-01-30T08:20:51.654Z,32.53
2018-01-30T08:23:19.319Z,44.07
2018-01-30T08:25:46.787Z,29.10
2018-01-30T08:28:14.239Z,32.13
2018-01-30T08:30:41.756Z,52.67
2018-01-30T08:33:09.174Z,32.17
2018-01-30T08:35:36.685Z,22.30
2018-01-30T08:38:04.147Z,28.03
2018-01-30T08:40:31.619Z,19.40
2018-01-30T08:42:59.076Z,12.50
2018-01-30T08:45:26.546Z,8.13
2018-01-30T08:47:54.772Z,8.30
2018-01-30T08:50:22.237Z,10.10
2018-01-30T08:52:50.458Z,9.20
2018-01-30T08:55:17.915Z,8.97
2018-01-30T08:57:45.376Z,8.23
2018-01-30T09:00:12.847Z,7.20
2018-01-30T09:02:40.299Z,9.20
2018-01-30T09:05:07.819Z,8.93
2018-01-30T09:07:35.281Z,6.07
2018-01-30T09:10:02.739Z,10.30
2018-01-30T09:12:30.190Z,8.30
2018-01-30T09:14:57.644Z,9.07
2018-01-30T09:17:25.114Z,7.80
2018-01-30T09:19:52.648Z,6.90
2018-01-30T09:22:20.113Z,7.13
2018-01-30T09:24:47.734Z,12.00
2018-01-30T09:27:15.326Z,11.63
2018-01-30T09:29:42.770Z,8.37
2018-01-30T09:32:10.252Z,9.57
2018-01-30T09:34:37.759Z,7.73
2018-01-30T09:37:06.103Z,8.90
2018-01-30T09:39:33.580Z,9.33
2018-01-30T09:42:01.105Z,12.10
2018-01-30T09:44:28.572Z,5.43
2018-01-30T09:46:56.796Z,8.53
2018-01-30T09:49:25.120Z,9.07
2018-01-30T09:51:52.661Z,6.80
2018-01-30T09:54:20.124Z,7.20
2018-01-30T09:56:47.623Z,11.00
2018-01-30T09:59:15.172Z,7.30
2018-01-30T10:01:42.600Z,8.40
2018-01-30T10:04:10.073Z,11.63
2018-01-30T10:06:37.512Z,4.97
2018-01-30T10:09:05.107Z,7.77
2018-01-30T10:11:32.621Z,5.17
2018-01-30T10:14:00.392Z,4.13
2018-01-30T10:16:27.844Z,7.87
2018-01-30T10:18:55.307Z,5.47
2018-01-30T10:21:22.757Z,6.57
2018-01-30T10:23:50.223Z,8.50
2018-01-30T10:26:17.671Z,5.40
2018-01-30T10:28:45.120Z,5.37
2018-01-30T10:31:12.584Z,5.73
2018-01-30T10:33:40.039Z,5.17
2018-01-30T10:36:07.503Z,5.50
2018-01-30T10:38:34.960Z,4.53
2018-01-30T10:41:02.422Z,3.70
2018-01-30T10:43:29.866Z,5.73
2018-01-30T10:45:57.352Z,6.57
2018-01-30T10:48:24.799Z,5.63
2018-01-30T10:50:52.264Z,5.87
2018-01-30T10:53:19.706Z,7.93
2018-01-30T10:55:47.154Z,5.37
2018-01-30T10:58:14.612Z,4.67
2018-01-30T11:00:42.082Z,5.37
2018-01-30T11:03:09.536Z,4.33
2018-01-30T11:05:36.998Z,5.33
2018-01-30T11:08:04.460Z,5.90
2018-01-30T11:10:31.904Z,7.93
2018-01-30T11:12:59.367Z,8.20
2018-01-30T11:15:26.810Z,8.40
2018-01-30T11:17:54.270Z,4.87
2018-01-30T11:20:21.854Z,5.97
2018-01-30T11:22:49.330Z,4.83
2018-01-30T11:25:16.784Z,6.37
2018-01-30T11:27:44.241Z,4.13
2018-01-30T11:30:11.752Z,5.87
2018-01-30T11:32:39.219Z,7.17
2018-01-30T11:35:06.678Z,5.67
2018-01-30T11:37:34.158Z,6.57
2018-01-30T11:40:01.606Z,5.07
2018-01-30T11:42:29.139Z,6.43
2018-01-30T11:44:56.601Z,6.03
2018-01-30T11:47:24.115Z,4.80
2018-01-30T11:49:51.593Z,9.13
2018-01-30T11:54:46.521Z,6.00
2018-01-30T11:57:14.011Z,6.57
2018-01-30T11:59:41.486Z,3.80
2018-01-30T12:02:08.943Z,8.93
2018-01-30T12:04:36.406Z,6.30
2018-01-30T12:07:03.852Z,4.17
2018-01-30T12:09:31.320Z,9.33
2018-01-30T12:11:58.778Z,27.67
2018-01-30T12:14:26.258Z,53.87
2018-01-30T12:16:53.739Z,19.03
2018-01-30T12:19:21.227Z,31.97
2018-01-30T12:21:48.686Z,20.50
2018-01-30T12:24:16.222Z,5.67
2018-01-30T12:26:43.683Z,6.60
2018-01-30T12:29:11.133Z,5.67
2018-01-30T12:31:38.602Z,4.30
2018-01-30T12:34:06.085Z,3.50
2018-01-30T12:36:33.579Z,7.90
2018-01-30T12:39:01.028Z,3.23
2018-01-30T12:41:29.270Z,6.43
2018-01-30T12:43:56.728Z,6.10
2018-01-30T12:46:24.260Z,12.90
2018-01-30T12:48:51.715Z,12.30
2018-01-30T12:51:19.462Z,9.67
2018-01-30T12:53:47.768Z,6.47
2018-01-30T12:56:15.279Z,7.17
2018-01-30T12:58:42.743Z,6.07
2018-01-30T13:01:10.202Z,4.00
2018-01-30T13:03:37.650Z,7.00
2018-01-30T13:06:05.898Z,6.67
2018-01-30T13:08:33.354Z,8.97
2018-01-30T13:11:00.836Z,3.90
2018-01-30T13:13:28.294Z,4.37
2018-01-30T13:15:55.756Z,4.90
2018-01-30T13:18:23.259Z,4.57
2018-01-30T13:20:50.716Z,3.87
2018-01-30T13:23:18.208Z,11.70
2018-01-30T13:25:45.663Z,7.83
2018-01-30T13:28:13.136Z,3.37
2018-01-30T13:30:41.354Z,4.60
2018-01-30T13:33:08.827Z,4.67
2018-01-30T13:35:36.278Z,5.20
2018-01-30T13:38:03.812Z,10.67
2018-01-30T13:40:31.291Z,5.10
2018-01-30T13:42:58.750Z,5.23
2018-01-30T13:45:26.202Z,6.03
2018-01-30T13:47:53.659Z,3.40
2018-01-30T13:50:21.122Z,4.40
2018-01-30T13:52:48.607Z,7.23
2018-01-30T13:55:16.034Z,3.30
2018-01-30T13:57:43.499Z,6.90
2018-01-30T14:00:10.956Z,5.43
2018-01-30T14:02:38.420Z,3.37
2018-01-30T14:05:05.886Z,2.30
2018-01-30T14:07:33.344Z,4.13
2018-01-30T14:10:00.812Z,4.17
2018-01-30T14:12:28.270Z,3.63
2018-01-30T14:14:56.498Z,6.83
2018-01-30T14:17:23.981Z,5.90
2018-01-30T14:19:51.447Z,3.97
2018-01-30T14:22:18.902Z,2.57
2018-01-30T14:24:46.385Z,5.33
2018-01-30T14:27:13.861Z,4.00
2018-01-30T14:29:41.310Z,4.83
2018-01-30T14:32:08.764Z,3.67
2018-01-30T14:34:36.226Z,3.63
2018-01-30T14:37:03.693Z,5.17
2018-01-30T14:39:31.147Z,6.00
2018-01-30T14:41:58.711Z,6.60
2018-01-30T14:44:26.235Z,4.23
2018-01-30T14:46:53.695Z,3.97
2018-01-30T14:49:21.152Z,5.03
2018-01-30T14:51:48.622Z,5.30
2018-01-30T14:54:16.084Z,4.30
2018-01-30T14:56:43.559Z,4.50
2018-01-30T14:59:11.018Z,3.23
2018-01-30T15:01:38.498Z,7.80
2018-01-30T15:04:06.723Z,4.47
2018-01-30T15:06:34.985Z,5.30
2018-01-30T15:09:02.580Z,6.20
2018-01-30T15:11:30.031Z,4.57
2018-01-30T15:13:57.552Z,3.43
2018-01-30T15:16:25.019Z,14.53
2018-01-30T15:18:52.503Z,6.13
2018-01-30T15:21:19.956Z,4.17
2018-01-30T15:23:47.425Z,6.50
2018-01-30T15:26:15.012Z,5.27
2018-01-30T15:28:42.479Z,4.20
2018-01-30T15:31:09.922Z,3.63
2018-01-30T15:33:37.386Z,2.30
2018-01-30T15:36:04.849Z,4.50
2018-01-30T15:38:32.306Z,4.67
2018-01-30T15:40:59.775Z,6.10
2018-01-30T15:43:27.252Z,4.77
2018-01-30T15:45:55.462Z,12.60
2018-01-30T15:48:22.959Z,6.77
2018-01-30T15:50:50.438Z,5.00
2018-01-30T15:53:17.930Z,11.50
2018-01-30T15:55:45.398Z,4.23
2018-01-30T15:58:12.851Z,3.60
2018-01-30T16:00:40.330Z,3.93
2018-01-30T16:03:07.787Z,9.03
2018-01-30T16:05:35.253Z,3.67
2018-01-30T16:08:02.702Z,4.10
2018-01-30T16:10:30.169Z,3.83
2018-01-30T16:12:57.950Z,4.17
2018-01-30T16:15:25.424Z,4.93
2018-01-30T16:17:53.630Z,5.73
2018-01-30T16:20:21.094Z,10.87
2018-01-30T16:22:48.550Z,7.73
2018-01-30T16:25:16.016Z,8.97
2018-01-30T16:27:43.690Z,9.93
2018-01-30T16:30:11.141Z,5.33
2018-01-30T16:32:38.647Z,8.17
2018-01-30T16:35:06.055Z,5.77
2018-01-30T16:37:33.520Z,6.00
2018-01-30T16:40:01.028Z,7.17
2018-01-30T16:42:28.491Z,6.27
2018-01-30T16:44:55.946Z,4.33
2018-01-30T16:47:23.409Z,5.07
2018-01-30T16:49:50.866Z,9.23
2018-01-30T16:52:18.332Z,4.20
2018-01-30T16:54:45.798Z,7.73
2018-01-30T16:57:13.272Z,7.77
2018-01-30T16:59:40.714Z,13.90
2018-01-30T17:02:08.177Z,5.87
2018-01-30T17:04:35.652Z,12.00
2018-01-30T17:07:03.107Z,21.33
2018-01-30T17:09:30.590Z,15.00
2018-01-30T17:11:58.041Z,8.63
2018-01-30T17:14:25.502Z,6.67
2018-01-30T17:16:52.960Z,7.40
2018-01-30T17:19:20.414Z,7.03
2018-01-30T17:21:47.871Z,9.43
2018-01-30T17:24:15.330Z,8.43
2018-01-30T17:26:42.785Z,9.37
2018-01-30T17:29:10.245Z,6.63
2018-01-30T17:31:37.693Z,8.03
2018-01-30T17:34:05.223Z,10.43
2018-01-30T17:36:32.664Z,14.83
2018-01-30T17:39:00.123Z,12.80
2018-01-30T17:41:27.577Z,16.83
2018-01-30T17:43:55.048Z,15.77
2018-01-30T17:46:22.507Z,17.63
2018-01-30T17:48:49.979Z,14.07
2018-01-30T17:51:17.439Z,16.33
2018-01-30T17:53:44.902Z,15.83
2018-01-30T17:56:12.358Z,16.80
2018-01-30T17:58:39.810Z,15.20
2018-01-30T18:01:07.278Z,13.33
2018-01-30T18:03:34.792Z,18.77
2018-01-30T18:06:02.242Z,13.83
2018-01-30T18:08:29.707Z,14.57
2018-01-30T18:10:57.217Z,13.80
2018-01-30T18:13:24.687Z,14.90
2018-01-30T18:15:52.949Z,13.47
2018-01-30T18:18:20.545Z,28.23
2018-01-30T18:20:48.243Z,17.73
2018-01-30T18:23:15.706Z,20.63
2018-01-30T18:25:43.168Z,20.53
2018-01-30T18:28:10.631Z,18.33
2018-01-30T18:30:38.079Z,27.60
2018-01-30T18:33:05.534Z,23.50
2018-01-30T18:35:32.994Z,26.30
2018-01-30T18:38:00.504Z,26.87
2018-01-30T18:40:27.982Z,23.77
2018-01-30T18:42:55.437Z,17.67
2018-01-30T18:45:22.908Z,21.23
2018-01-30T18:47:50.376Z,24.93
2018-01-30T18:50:18.006Z,18.57
2018-01-30T18:52:45.470Z,30.33
2018-01-30T18:55:12.935Z,27.57
2018-01-30T18:57:40.401Z,22.80
2018-01-30T19:00:07.931Z,31.87
2018-01-30T19:02:35.389Z,24.73
2018-01-30T19:05:02.867Z,21.63
2018-01-30T19:07:30.372Z,24.47
2018-01-30T19:09:57.838Z,22.37
2018-01-30T19:12:25.302Z,22.00
2018-01-30T19:14:52.784Z,21.67
2018-01-30T19:17:20.242Z,29.03
2018-01-30T19:19:47.771Z,31.47
2018-01-30T19:22:16.028Z,26.73
2018-01-30T19:24:43.547Z,29.97
2018-01-30T19:27:11.038Z,26.73
2018-01-30T19:29:38.549Z,23.23
2018-01-30T19:32:06.004Z,29.83
2018-01-30T19:34:33.473Z,29.47
2018-01-30T19:37:00.927Z,29.17
2018-01-30T19:39:28.455Z,29.10
2018-01-30T19:41:55.911Z,29.83
2018-01-30T19:44:24.134Z,22.87
2018-01-30T19:46:51.611Z,25.77
2018-01-30T19:49:19.067Z,21.53
2018-01-30T19:51:46.597Z,24.43
2018-01-30T19:54:14.149Z,26.30
2018-01-30T19:56:42.573Z,27.13
2018-01-30T19:59:10.095Z,36.20
2018-01-30T20:01:37.600Z,33.20
2018-01-30T20:04:05.096Z,32.67
2018-01-30T20:06:32.556Z,41.43
2018-01-30T20:09:00.083Z,41.20
2018-01-30T20:11:27.534Z,27.33
2018-01-30T20:13:55.051Z,31.43
2018-01-30T20:16:23.299Z,35.47
2018-01-30T20:18:50.811Z,38.67
2018-01-30T20:21:18.280Z,40.43
2018-01-30T20:23:45.791Z,48.47
2018-01-30T20:26:13.285Z,30.37
2018-01-30T20:28:40.762Z,30.70
2018-01-30T20:31:08.283Z,27.47
2018-01-30T20:33:35.793Z,23.73
2018-01-30T20:36:04.057Z,22.93
2018-01-30T20:38:31.524Z,44.07
2018-01-30T20:40:59.050Z,26.53
2018-01-30T20:43:26.520Z,25.73
2018-01-30T20:45:54.789Z,26.30
2018-01-30T20:48:22.257Z,20.67
2018-01-30T20:50:49.775Z,20.37
2018-01-30T20:53:17.299Z,21.43
2018-01-30T20:55:44.750Z,18.73
2018-01-30T20:58:12.260Z,22.93
2018-01-30T21:00:39.709Z,20.20
2018-01-30T21:03:07.163Z,19.17
2018-01-30T21:05:34.698Z,19.27
2018-01-30T21:08:02.152Z,18.87
2018-01-30T21:10:29.619Z,18.43
2018-01-30T21:12:57.080Z,17.57
2018-01-30T21:15:24.551Z,19.67
2018-01-30T21:17:52.015Z,22.00
2018-01-30T21:20:20.362Z,22.00
2018-01-30T21:22:47.822Z,26.10
2018-01-30T21:25:15.305Z,22.93
2018-01-30T21:27:42.820Z,23.37
2018-01-30T21:30:10.293Z,19.37
2018-01-30T21:32:37.807Z,24.47
2018-01-30T21:35:06.109Z,21.17
2018-01-30T21:37:33.571Z,25.47
2018-01-30T21:40:01.121Z,20.23
2018-01-30T21:42:29.346Z,19.87
2018-01-30T21:44:56.814Z,19.33
2018-01-30T21:47:24.307Z,18.63
2018-01-30T21:49:51.800Z,23.90
2018-01-30T21:52:19.283Z,16.83
2018-01-30T21:54:46.755Z,18.23
2018-01-30T21:57:14.273Z,20.33
2018-01-30T21:59:41.824Z,18.27
2018-01-30T22:02:09.359Z,18.10
2018-01-30T22:04:36.865Z,16.13
2018-01-30T22:07:04.362Z,20.13
2018-01-30T22:09:32.651Z,18.23
2018-01-30T22:12:00.131Z,20.07
2018-01-30T22:14:27.630Z,19.40
2018-01-30T22:16:55.134Z,17.77
2018-01-30T22:19:22.597Z,19.13
2018-01-30T22:21:50.069Z,17.30
2018-01-30T22:24:17.541Z,21.37
2018-01-30T22:26:45.005Z,19.37
2018-01-30T22:29:12.458Z,21.37
2018-01-30T22:31:39.931Z,20.70
2018-01-30T22:34:07.386Z,20.90
2018-01-30T22:36:34.854Z,19.33
2018-01-30T22:39:02.327Z,23.47
2018-01-30T22:41:29.862Z,18.73
2018-01-30T22:43:57.323Z,21.40
2018-01-30T22:46:24.790Z,19.23
